createdAt,value
2019-04-10T00:01:40.535Z,22.17
2019-04-10T00:04:15.781Z,27.13
2019-04-10T00:06:48.002Z,21.40
2019-04-10T00:09:19.545Z,21.63
2019-04-10T00:11:53.418Z,21.87
2019-04-10T00:14:28.243Z,20.93
2019-04-10T00:17:00.938Z,26.33
2019-04-10T00:19:33.082Z,21.20
2019-04-10T00:22:06.294Z,20.70
2019-04-10T00:24:40.030Z,20.50
2019-04-10T00:27:16.685Z,21.73
2019-04-10T00:29:50.463Z,21.17
2019-04-10T00:32:23.735Z,20.60
2019-04-10T00:34:58.185Z,21.43
2019-04-10T00:37:32.400Z,21.00
2019-04-10T00:40:03.372Z,28.30
2019-04-10T00:42:34.871Z,20.80
2019-04-10T00:45:09.154Z,21.33
2019-04-10T00:47:46.187Z,27.03
2019-04-10T00:50:18.784Z,21.90
2019-04-10T00:52:49.094Z,20.93
2019-04-10T00:55:19.750Z,27.60
2019-04-10T00:57:54.610Z,21.40
2019-04-10T01:00:26.147Z,22.03
2019-04-10T01:02:58.857Z,21.87
2019-04-10T01:05:31.785Z,20.07
2019-04-10T01:08:04.854Z,20.07
2019-04-10T01:10:36.621Z,19.67
2019-04-10T01:13:08.372Z,26.43
2019-04-10T01:15:40.607Z,20.80
2019-04-10T01:18:11.149Z,21.50
2019-04-10T01:20:45.036Z,21.00
2019-04-10T01:23:18.571Z,27.60
2019-04-10T01:25:49.164Z,20.63
2019-04-10T01:28:21.310Z,20.37
2019-04-10T01:30:57.473Z,20.83
2019-04-10T01:33:28.416Z,26.23
2019-04-10T01:35:58.902Z,20.60
2019-04-10T01:38:29.853Z,19.63
2019-04-10T01:41:01.475Z,26.10
2019-04-10T01:43:35.123Z,20.50
2019-04-10T01:46:08.384Z,19.27
2019-04-10T01:48:39.801Z,20.13
2019-04-10T01:51:10.814Z,20.80
2019-04-10T01:53:41.972Z,20.67
2019-04-10T01:56:24.795Z,26.43
2019-04-10T01:58:49.633Z,21.37
2019-04-10T02:01:28.271Z,21.67
2019-04-10T02:04:00.560Z,20.93
2019-04-10T02:06:33.611Z,20.43
2019-04-10T02:09:05.288Z,21.77
2019-04-10T02:11:38.351Z,26.03
2019-04-10T02:14:08.944Z,21.27
2019-04-10T02:16:39.519Z,21.00
2019-04-10T02:19:16.438Z,21.00
2019-04-10T02:21:48.409Z,21.13
2019-04-10T02:24:19.224Z,28.27
2019-04-10T02:26:49.852Z,22.17
2019-04-10T02:29:21.597Z,21.23
2019-04-10T02:31:53.373Z,21.37
2019-04-10T02:34:28.880Z,23.03
2019-04-10T02:37:06.793Z,26.13
2019-04-10T02:39:42.413Z,21.03
2019-04-10T02:42:10.176Z,21.53
2019-04-10T02:44:41.656Z,28.00
2019-04-10T02:47:13.029Z,22.40
2019-04-10T02:49:47.101Z,22.47
2019-04-10T02:52:20.392Z,22.47
2019-04-10T02:54:51.285Z,23.17
2019-04-10T02:57:27.632Z,23.47
2019-04-10T03:00:03.715Z,28.30
2019-04-10T03:02:33.693Z,24.53
2019-04-10T03:05:07.288Z,24.73
2019-04-10T03:07:40.375Z,24.13
2019-04-10T03:10:23.253Z,23.33
2019-04-10T03:12:46.276Z,29.60
2019-04-10T03:15:25.190Z,24.37
2019-04-10T03:18:04.176Z,30.37
2019-04-10T03:20:38.485Z,24.47
2019-04-10T03:23:12.021Z,23.50
2019-04-10T03:25:45.458Z,24.57
2019-04-10T03:28:16.671Z,29.97
2019-04-10T03:30:49.406Z,24.60
2019-04-10T03:33:33.769Z,23.10
2019-04-10T03:36:05.271Z,23.13
2019-04-10T03:38:53.492Z,30.10
2019-04-10T03:41:12.241Z,24.80
2019-04-10T03:43:43.814Z,23.27
2019-04-10T03:46:21.862Z,29.63
2019-04-10T03:48:55.633Z,26.07
2019-04-10T03:51:26.479Z,24.77
2019-04-10T03:53:57.061Z,25.90
2019-04-10T03:56:27.957Z,24.00
2019-04-10T03:59:02.155Z,25.23
2019-04-10T04:01:35.670Z,24.80
2019-04-10T04:04:07.051Z,24.63
2019-04-10T04:06:39.849Z,25.00
2019-04-10T04:09:13.550Z,24.13
2019-04-10T04:11:44.667Z,25.13
2019-04-10T04:14:17.448Z,26.37
2019-04-10T04:16:49.130Z,26.73
2019-04-10T04:19:20.123Z,25.73
2019-04-10T04:22:01.093Z,24.60
2019-04-10T04:24:54.279Z,26.20
2019-04-10T04:27:53.808Z,24.67
2019-04-10T04:30:31.987Z,24.67
2019-04-10T04:33:04.799Z,23.27
2019-04-10T04:35:35.059Z,24.30
2019-04-10T04:38:07.088Z,24.37
2019-04-10T04:40:44.239Z,24.77
2019-04-10T04:43:14.978Z,30.07
2019-04-10T04:45:48.212Z,25.17
2019-04-10T04:48:22.132Z,30.30
2019-04-10T04:51:03.932Z,23.23
2019-04-10T04:53:37.977Z,30.97
2019-04-10T04:56:11.416Z,25.43
2019-04-10T04:58:47.539Z,25.30
2019-04-10T05:01:21.073Z,25.10
2019-04-10T05:03:52.599Z,25.30
2019-04-10T05:06:25.024Z,25.63
2019-04-10T05:08:56.850Z,29.13
2019-04-10T05:11:38.425Z,24.77
2019-04-10T05:14:13.885Z,22.67
2019-04-10T05:16:46.206Z,30.00
2019-04-10T05:19:17.407Z,24.97
2019-04-10T05:21:48.233Z,23.87
2019-04-10T05:24:22.263Z,24.17
2019-04-10T05:26:53.630Z,23.77
2019-04-10T05:29:25.067Z,23.73
2019-04-10T05:31:58.787Z,23.70
2019-04-10T05:34:30.669Z,29.30
2019-04-10T05:37:03.141Z,24.10
2019-04-10T05:39:41.347Z,22.30
2019-04-10T05:42:08.467Z,23.23
2019-04-10T05:44:40.190Z,23.47
2019-04-10T05:47:19.223Z,22.90
2019-04-10T05:49:50.129Z,21.37
2019-04-10T05:52:23.522Z,22.87
2019-04-10T05:54:59.947Z,28.50
2019-04-10T05:57:39.059Z,22.57
2019-04-10T06:00:10.954Z,22.30
2019-04-10T06:02:41.862Z,22.13
2019-04-10T06:05:16.265Z,22.63
2019-04-10T06:07:47.549Z,22.77
2019-04-10T06:10:19.761Z,22.20
2019-04-10T06:12:52.896Z,21.80
2019-04-10T06:15:23.197Z,21.67
2019-04-10T06:17:54.588Z,22.10
2019-04-10T06:20:25.191Z,28.47
2019-04-10T06:23:01.410Z,22.70
2019-04-10T06:25:34.059Z,22.67
2019-04-10T06:28:05.252Z,23.57
2019-04-10T06:30:36.343Z,22.63
2019-04-10T06:33:12.310Z,20.50
2019-04-10T06:35:46.944Z,26.23
2019-04-10T06:38:21.030Z,21.20
2019-04-10T06:40:52.360Z,21.63
2019-04-10T06:43:23.716Z,20.83
2019-04-10T06:45:57.850Z,21.03
2019-04-10T06:48:28.511Z,20.80
2019-04-10T06:50:59.843Z,20.83
2019-04-10T06:53:33.259Z,19.83
2019-04-10T06:56:04.882Z,19.87
2019-04-10T06:58:36.031Z,18.97
2019-04-10T07:01:08.276Z,18.50
2019-04-10T07:03:52.787Z,19.10
2019-04-10T07:06:20.792Z,19.03
2019-04-10T07:08:53.348Z,18.93
2019-04-10T07:11:30.445Z,18.33
2019-04-10T07:14:04.911Z,18.20
2019-04-10T07:16:42.209Z,17.23
2019-04-10T07:19:17.781Z,17.37
2019-04-10T07:22:09.854Z,18.10
2019-04-10T07:24:42.500Z,17.63
2019-04-10T07:27:16.052Z,17.50
2019-04-10T07:29:53.898Z,16.93
2019-04-10T07:32:33.914Z,17.90
2019-04-10T07:35:05.327Z,15.60
2019-04-10T07:37:44.446Z,14.80
2019-04-10T07:40:18.638Z,14.20
2019-04-10T07:43:07.338Z,14.67
2019-04-10T07:45:39.944Z,14.47
2019-04-10T07:48:18.458Z,15.07
2019-04-10T07:50:55.869Z,15.33
2019-04-10T07:53:30.892Z,14.87
2019-04-10T07:56:13.557Z,14.27
2019-04-10T07:58:51.663Z,13.23
2019-04-10T08:01:27.360Z,12.80
2019-04-10T08:04:01.867Z,16.90
2019-04-10T08:06:33.239Z,12.23
2019-04-10T08:09:10.543Z,13.73
2019-04-10T08:11:42.936Z,12.63
2019-04-10T08:14:14.840Z,13.37
2019-04-10T08:16:57.748Z,12.60
2019-04-10T08:19:32.829Z,12.00
2019-04-10T08:22:06.607Z,13.17
2019-04-10T08:24:49.818Z,11.47
2019-04-10T08:27:19.800Z,11.43
2019-04-10T08:29:54.881Z,11.10
2019-04-10T08:32:27.643Z,10.70
2019-04-10T08:35:11.200Z,10.07
2019-04-10T08:37:50.712Z,10.03
2019-04-10T08:40:52.304Z,10.23
2019-04-10T08:43:43.627Z,9.73
2019-04-10T08:46:33.659Z,9.80
2019-04-10T08:49:08.305Z,9.17
2019-04-10T08:51:41.723Z,8.87
2019-04-10T08:54:14.644Z,9.10
2019-04-10T08:56:45.343Z,8.57
2019-04-10T08:59:23.829Z,8.03
2019-04-10T09:01:56.084Z,8.57
2019-04-10T09:04:29.237Z,8.13
2019-04-10T09:07:04.278Z,8.13
2019-04-10T09:09:39.451Z,9.13
2019-04-10T09:12:31.666Z,7.70
2019-04-10T09:15:01.575Z,7.37
2019-04-10T09:17:39.735Z,7.93
2019-04-10T09:20:18.539Z,7.30
2019-04-10T09:23:13.456Z,7.43
2019-04-10T09:25:28.519Z,7.23
2019-04-10T09:28:40.657Z,7.37
2019-04-10T09:31:20.501Z,7.57
2019-04-10T09:36:54.162Z,7.40
2019-04-10T09:39:39.139Z,6.90
2019-04-10T09:42:19.405Z,6.73
2019-04-10T09:44:52.819Z,7.47
2019-04-10T09:47:24.806Z,8.13
2019-04-10T09:49:57.966Z,7.23
2019-04-10T09:52:28.583Z,7.27
2019-04-10T09:54:59.652Z,7.03
2019-04-10T09:57:30.562Z,7.50
2019-04-10T10:00:05.417Z,6.87
2019-04-10T10:03:00.111Z,7.20
2019-04-10T10:05:31.099Z,7.70
2019-04-10T10:08:11.577Z,6.93
2019-04-10T10:10:50.268Z,7.23
2019-04-10T10:13:31.853Z,7.57
2019-04-10T10:16:23.983Z,7.30
2019-04-10T10:19:07.857Z,7.17
2019-04-10T10:21:35.067Z,7.43
2019-04-10T10:24:10.712Z,7.13
2019-04-10T10:26:46.061Z,7.57
2019-04-10T10:29:21.782Z,7.00
2019-04-10T10:32:13.706Z,7.00
2019-04-10T10:34:50.425Z,6.90
2019-04-10T10:37:22.171Z,7.10
2019-04-10T10:39:57.375Z,7.37
2019-04-10T10:42:38.481Z,7.63
2019-04-10T10:45:12.457Z,6.27
2019-04-10T10:47:44.958Z,6.90
2019-04-10T10:50:22.103Z,7.00
2019-04-10T10:52:57.988Z,6.70
2019-04-10T10:55:29.618Z,7.53
2019-04-10T10:58:03.732Z,6.87
2019-04-10T11:00:35.491Z,7.07
2019-04-10T11:03:18.187Z,9.27
2019-04-10T11:05:50.723Z,7.13
2019-04-10T11:08:29.352Z,6.80
2019-04-10T11:11:02.791Z,6.70
2019-04-10T11:13:39.589Z,6.87
2019-04-10T11:16:13.070Z,7.10
2019-04-10T11:18:51.085Z,6.37
2019-04-10T11:21:24.821Z,6.50
2019-04-10T11:24:04.672Z,8.03
2019-04-10T11:26:38.406Z,7.30
2019-04-10T11:29:11.874Z,7.07
2019-04-10T11:31:42.846Z,7.13
2019-04-10T11:34:16.580Z,6.80
2019-04-10T11:37:15.617Z,7.27
2019-04-10T11:39:31.651Z,6.50
2019-04-10T11:41:57.832Z,7.17
2019-04-10T11:44:34.742Z,8.90
2019-04-10T11:47:10.486Z,7.87
2019-04-10T11:49:43.415Z,6.63
2019-04-10T11:52:19.017Z,6.30
2019-04-10T11:54:49.170Z,6.40
2019-04-10T11:57:22.884Z,11.00
2019-04-10T12:00:06.579Z,6.50
2019-04-10T12:02:39.648Z,9.10
2019-04-10T12:05:20.083Z,7.33
2019-04-10T12:08:21.075Z,7.50
2019-04-10T12:13:20.396Z,6.50
2019-04-10T12:16:51.565Z,6.23
2019-04-10T12:19:25.029Z,6.60
2019-04-10T12:21:56.077Z,6.20
2019-04-10T12:24:26.928Z,6.37
2019-04-10T12:27:07.141Z,6.50
2019-04-10T12:29:42.532Z,6.30
2019-04-10T12:32:13.074Z,5.90
2019-04-10T12:35:02.142Z,6.77
2019-04-10T12:37:39.631Z,6.23
2019-04-10T12:40:11.832Z,7.07
2019-04-10T12:42:44.205Z,5.90
2019-04-10T12:45:16.275Z,6.43
2019-04-10T12:47:50.257Z,6.43
2019-04-10T12:50:22.860Z,6.40
2019-04-10T12:52:54.738Z,6.23
2019-04-10T12:55:34.611Z,6.30
2019-04-10T12:58:15.880Z,6.90
2019-04-10T13:00:54.059Z,6.33
2019-04-10T13:03:31.357Z,6.03
2019-04-10T13:06:33.905Z,6.93
2019-04-10T13:10:02.555Z,6.20
2019-04-10T13:12:47.232Z,6.57
2019-04-10T13:15:27.660Z,7.37
2019-04-10T13:18:23.130Z,6.40
2019-04-10T13:20:57.976Z,6.70
2019-04-10T13:23:33.147Z,6.43
2019-04-10T13:26:24.238Z,6.87
2019-04-10T13:28:58.025Z,6.73
2019-04-10T13:31:33.109Z,7.73
2019-04-10T13:34:15.303Z,6.67
2019-04-10T13:37:24.999Z,7.20
2019-04-10T13:39:59.058Z,7.83
2019-04-10T13:42:31.551Z,6.23
2019-04-10T13:45:02.864Z,6.17
2019-04-10T13:47:38.625Z,6.33
2019-04-10T13:50:10.557Z,6.30
2019-04-10T13:52:52.617Z,5.83
2019-04-10T13:55:24.364Z,6.30
2019-04-10T13:58:04.716Z,6.87
2019-04-10T14:00:40.029Z,6.10
2019-04-10T14:03:16.356Z,6.40
2019-04-10T14:05:52.883Z,6.13
2019-04-10T14:08:58.651Z,5.90
2019-04-10T14:11:17.439Z,5.90
2019-04-10T14:13:46.233Z,6.30
2019-04-10T14:16:20.863Z,6.23
2019-04-10T14:18:52.892Z,6.20
2019-04-10T14:21:27.278Z,5.70
2019-04-10T14:24:04.073Z,6.07
2019-04-10T14:26:52.199Z,6.03
2019-04-10T14:29:26.935Z,6.33
2019-04-10T14:32:03.211Z,5.57
2019-04-10T14:34:42.971Z,6.50
2019-04-10T14:37:21.199Z,5.80
2019-04-10T14:39:57.757Z,5.83
2019-04-10T14:42:32.783Z,5.80
2019-04-10T14:45:13.161Z,5.40
2019-04-10T14:47:47.644Z,5.80
2019-04-10T14:50:19.839Z,5.90
2019-04-10T14:52:53.843Z,5.90
2019-04-10T14:55:27.166Z,6.23
2019-04-10T14:57:59.146Z,6.27
2019-04-10T15:00:53.229Z,7.00
2019-04-10T15:03:28.577Z,6.03
2019-04-10T15:06:09.154Z,6.77
2019-04-10T15:08:48.795Z,5.93
2019-04-10T15:11:24.772Z,5.93
2019-04-10T15:13:55.875Z,5.60
2019-04-10T15:16:27.393Z,5.07
2019-04-10T15:19:00.301Z,5.63
2019-04-10T15:21:34.671Z,6.00
2019-04-10T15:24:07.013Z,5.10
2019-04-10T15:26:50.897Z,5.87
2019-04-10T15:29:47.591Z,5.00
2019-04-10T15:32:25.271Z,5.23
2019-04-10T15:35:00.439Z,5.67
2019-04-10T15:37:55.758Z,5.90
2019-04-10T15:40:42.015Z,5.60
2019-04-10T15:43:12.612Z,5.07
2019-04-10T15:45:46.328Z,6.37
2019-04-10T15:48:20.878Z,5.63
2019-04-10T15:50:54.244Z,5.47
2019-04-10T15:53:27.071Z,5.67
2019-04-10T15:56:01.296Z,5.93
2019-04-10T15:58:37.473Z,5.63
2019-04-10T16:01:18.099Z,5.63
2019-04-10T16:03:52.754Z,6.00
2019-04-10T16:06:25.118Z,5.83
2019-04-10T16:08:57.122Z,5.80
2019-04-10T16:11:42.045Z,6.50
2019-04-10T16:14:23.194Z,5.43
2019-04-10T16:17:22.900Z,7.77
2019-04-10T16:20:06.118Z,7.10
2019-04-10T16:22:46.752Z,5.60
2019-04-10T16:25:30.333Z,5.63
2019-04-10T16:28:06.262Z,5.90
2019-04-10T16:30:37.253Z,5.27
2019-04-10T16:33:11.189Z,5.73
2019-04-10T16:35:46.121Z,6.30
2019-04-10T16:38:18.869Z,5.63
2019-04-10T16:40:49.998Z,5.80
2019-04-10T16:43:22.315Z,5.67
2019-04-10T16:45:53.065Z,5.20
2019-04-10T16:48:34.249Z,5.40
2019-04-10T16:51:08.029Z,4.90
2019-04-10T16:53:39.488Z,5.63
2019-04-10T16:56:11.522Z,5.83
2019-04-10T16:58:42.989Z,5.30
2019-04-10T17:01:20.628Z,5.07
2019-04-10T17:03:53.034Z,5.57
2019-04-10T17:06:28.855Z,5.67
2019-04-10T17:09:02.637Z,5.37
2019-04-10T17:11:45.292Z,5.40
2019-04-10T17:14:23.812Z,5.90
2019-04-10T17:17:00.495Z,5.70
2019-04-10T17:19:46.612Z,5.93
2019-04-10T17:22:14.977Z,5.40
2019-04-10T17:25:20.160Z,5.27
2019-04-10T17:28:25.412Z,7.10
2019-04-10T17:31:36.213Z,9.20
2019-04-10T17:34:11.343Z,6.33
2019-04-10T17:37:01.208Z,10.33
2019-04-10T17:40:00.086Z,9.70
2019-04-10T17:42:44.180Z,15.70
2019-04-10T17:45:42.797Z,9.53
2019-04-10T17:48:05.582Z,9.27
2019-04-10T17:50:45.674Z,7.27
2019-04-10T17:53:25.197Z,6.90
2019-04-10T17:56:34.146Z,13.40
2019-04-10T17:59:16.798Z,20.30
2019-04-10T18:01:53.721Z,15.97
2019-04-10T18:04:27.696Z,8.33
2019-04-10T18:07:03.925Z,7.77
2019-04-10T18:09:36.823Z,8.93
2019-04-10T18:12:10.671Z,7.50
2019-04-10T18:14:53.892Z,6.60
2019-04-10T18:17:35.433Z,6.30
2019-04-10T18:20:16.367Z,6.80
2019-04-10T18:22:55.843Z,6.97
2019-04-10T18:25:31.181Z,6.73
2019-04-10T18:28:11.546Z,6.70
2019-04-10T18:30:54.999Z,6.43
2019-04-10T18:33:31.031Z,7.03
2019-04-10T18:36:03.166Z,6.63
2019-04-10T18:38:37.749Z,6.43
2019-04-10T18:41:11.748Z,6.73
2019-04-10T18:43:44.675Z,6.57
2019-04-10T18:46:23.889Z,6.77
2019-04-10T18:48:58.997Z,7.40
2019-04-10T18:51:40.694Z,6.40
2019-04-10T18:54:16.590Z,7.33
2019-04-10T18:57:11.700Z,6.63
2019-04-10T19:00:15.762Z,6.57
2019-04-10T19:03:13.022Z,7.47
2019-04-10T19:05:46.361Z,6.17
2019-04-10T19:08:21.855Z,7.30
2019-04-10T19:11:07.650Z,6.37
2019-04-10T19:13:25.246Z,6.60
2019-04-10T19:15:57.262Z,6.63
2019-04-10T19:18:29.890Z,6.70
2019-04-10T19:21:00.613Z,7.07
2019-04-10T19:23:33.084Z,6.13
2019-04-10T19:26:05.509Z,7.20
2019-04-10T19:28:41.889Z,7.10
2019-04-10T19:31:19.467Z,9.03
2019-04-10T19:33:49.237Z,6.90
2019-04-10T19:36:34.581Z,9.10
2019-04-10T19:39:07.908Z,6.27
2019-04-10T19:41:41.454Z,6.73
2019-04-10T19:44:14.982Z,6.20
2019-04-10T19:46:45.978Z,6.30
2019-04-10T19:49:20.375Z,6.70
2019-04-10T19:51:53.473Z,6.47
2019-04-10T19:54:24.165Z,7.03
2019-04-10T19:56:59.779Z,6.40
2019-04-10T20:00:22.137Z,6.23
2019-04-10T20:03:07.987Z,6.87
2019-04-10T20:05:49.463Z,6.10
2019-04-10T20:08:44.025Z,6.10
2019-04-10T20:11:35.903Z,6.77
2019-04-10T20:14:00.848Z,7.13
2019-04-10T20:16:57.794Z,6.07
2019-04-10T20:20:23.572Z,6.23
2019-04-10T20:23:02.665Z,8.43
2019-04-10T20:25:39.214Z,6.50
2019-04-10T20:28:24.680Z,6.47
2019-04-10T20:31:02.340Z,6.57
2019-04-10T20:33:39.204Z,6.30
2019-04-10T20:36:17.222Z,5.87
2019-04-10T20:39:25.350Z,6.63
2019-04-10T20:42:48.808Z,6.30
2019-04-10T20:46:30.479Z,6.03
2019-04-10T20:49:12.101Z,5.93
2019-04-10T20:52:13.522Z,6.37
2019-04-10T20:55:11.251Z,6.17
2019-04-10T20:58:29.475Z,6.37
2019-04-10T21:01:41.576Z,8.00
2019-04-10T21:07:44.138Z,5.97
2019-04-10T21:10:34.950Z,6.00
2019-04-10T21:13:19.019Z,6.30
2019-04-10T21:16:56.379Z,6.03
2019-04-10T21:19:40.878Z,6.20
2019-04-10T21:22:30.982Z,6.23
2019-04-10T21:28:50.277Z,6.57
2019-04-10T21:31:50.539Z,6.40
2019-04-10T21:35:37.108Z,6.63
2019-04-10T21:38:38.806Z,6.53
2019-04-10T21:41:53.566Z,6.50
2019-04-10T21:45:11.017Z,5.67
2019-04-10T21:47:55.993Z,6.73
2019-04-10T21:50:47.396Z,6.37
2019-04-10T21:53:22.263Z,7.40
2019-04-10T21:56:10.436Z,6.23
2019-04-10T21:58:42.582Z,5.77
2019-04-10T22:01:28.330Z,6.40
2019-04-10T22:04:32.889Z,6.13
2019-04-10T22:11:34.296Z,6.20
2019-04-10T22:14:15.610Z,5.87
2019-04-10T22:16:50.541Z,6.37
2019-04-10T22:19:32.270Z,7.43
2019-04-10T22:22:15.213Z,7.03
2019-04-10T22:24:54.736Z,6.50
2019-04-10T22:27:31.625Z,6.83
2019-04-10T22:30:08.353Z,6.30
2019-04-10T22:32:45.578Z,6.73
2019-04-10T22:35:17.472Z,6.43
2019-04-10T22:37:57.316Z,7.17
2019-04-10T22:40:29.140Z,7.40
2019-04-10T22:43:03.424Z,6.80
2019-04-10T22:45:34.093Z,6.80
2019-04-10T22:48:04.581Z,6.93
2019-04-10T22:50:41.492Z,7.37
2019-04-10T22:53:23.426Z,7.20
2019-04-10T22:55:58.366Z,6.77
2019-04-10T22:58:31.550Z,7.20
2019-04-10T23:01:02.792Z,7.20
2019-04-10T23:03:45.228Z,6.63
2019-04-10T23:06:24.922Z,7.00
2019-04-10T23:09:00.248Z,7.13
2019-04-10T23:11:52.322Z,6.70
2019-04-10T23:14:36.591Z,9.33
2019-04-10T23:17:10.728Z,7.53
2019-04-10T23:19:42.769Z,7.70
2019-04-10T23:22:15.235Z,7.57
2019-04-10T23:24:47.703Z,6.83
2019-04-10T23:27:19.897Z,7.70
2019-04-10T23:29:52.660Z,7.63
2019-04-10T23:32:27.023Z,7.23
2019-04-10T23:35:01.465Z,7.50
2019-04-10T23:37:33.050Z,9.90
2019-04-10T23:40:08.591Z,6.97
2019-04-10T23:42:41.368Z,7.07
2019-04-10T23:45:15.560Z,7.20
2019-04-10T23:47:48.697Z,7.57
2019-04-10T23:50:21.875Z,7.47
2019-04-10T23:52:52.906Z,7.60
2019-04-10T23:55:24.618Z,8.27
2019-04-10T23:57:58.431Z,7.90
